Brokaw, Wisconsin
Current Conditions -  °F | °C
As of 8:25 AM on Sunday 21 Dec 2014 (Local Time) from KAUW Reporting Station
Haze Haze  
Wind Chill: 20°   Ceiling: 500
Heat Index: 29°   Visibility: 2.5mi
Dew Point: 27°   Wind: 9mph
Humidity: 92%   Direction: 150°SSE
Pressure: 30.03"   Gusts: NA
Location:  45.03°N, 89.65°W
Report Text: KAUW 211425Z AUTO 15008KT 2 1/2SM BR OVC005 M02/M03 A3003 RMK AO2 T10171028
Loading
Personal Weather Stations






























Interactive Weather Map New forecast layout! Learn more

10-Day Weather Forecast

Advertisements
Track Severe Weather on mobile